createdAt,value
2024-05-09T00:00:42.074Z,47.06
2024-05-09T00:03:11.004Z,46.64
2024-05-09T00:05:43.352Z,46.86
2024-05-09T00:08:11.296Z,47.32
2024-05-09T00:10:40.038Z,47.07
2024-05-09T00:13:09.018Z,47.37
2024-05-09T00:15:37.053Z,47.27
2024-05-09T00:18:06.451Z,47.60
2024-05-09T00:20:38.914Z,47.89
2024-05-09T00:23:10.202Z,48.32
2024-05-09T00:25:37.884Z,48.30
2024-05-09T00:28:06.093Z,48.61
2024-05-09T00:30:36.022Z,49.09
2024-05-09T00:33:09.143Z,49.40
2024-05-09T00:35:38.081Z,49.67
2024-05-09T00:38:05.794Z,49.82
2024-05-09T00:40:39.617Z,50.04
2024-05-09T00:43:10.572Z,50.52
2024-05-09T00:45:38.281Z,51.16
2024-05-09T00:48:07.962Z,51.65
2024-05-09T00:50:38.803Z,52.01
2024-05-09T00:53:06.765Z,52.27
2024-05-09T00:55:35.460Z,52.66
2024-05-09T00:58:03.297Z,52.57
2024-05-09T01:00:35.842Z,53.36
2024-05-09T01:03:08.697Z,54.06
2024-05-09T01:05:38.945Z,54.03
2024-05-09T01:08:06.888Z,53.81
2024-05-09T01:10:35.831Z,53.63
2024-05-09T01:13:04.519Z,54.11
2024-05-09T01:15:32.312Z,55.01
2024-05-09T01:18:01.027Z,54.94
2024-05-09T01:20:39.142Z,55.27
2024-05-09T01:23:10.165Z,55.95
2024-05-09T01:28:40.781Z,56.78
2024-05-09T01:31:08.599Z,55.95
2024-05-09T01:33:36.063Z,55.99
2024-05-09T01:36:03.840Z,56.45
2024-05-09T01:38:31.331Z,57.25
2024-05-09T01:40:58.775Z,57.56
2024-05-09T01:43:26.075Z,57.01
2024-05-09T01:45:53.536Z,58.04
2024-05-09T01:48:21.087Z,58.18
2024-05-09T01:50:48.685Z,57.99
2024-05-09T01:53:16.067Z,57.93
2024-05-09T01:55:43.965Z,58.02
2024-05-09T01:58:11.599Z,58.21
2024-05-09T02:00:42.293Z,58.16
2024-05-09T02:03:14.625Z,58.29
2024-05-09T02:05:45.321Z,58.03
2024-05-09T02:08:17.979Z,58.51
2024-05-09T02:10:46.438Z,57.71
2024-05-09T02:13:14.048Z,57.65
2024-05-09T02:15:41.462Z,57.83
2024-05-09T02:18:09.963Z,57.79
2024-05-09T02:20:38.688Z,58.05
2024-05-09T02:23:06.807Z,58.10
2024-05-09T02:25:34.815Z,58.21
2024-05-09T02:28:02.189Z,58.06
2024-05-09T02:30:38.428Z,57.54
2024-05-09T02:33:13.532Z,57.84
2024-05-09T02:35:42.744Z,57.08
2024-05-09T02:38:11.223Z,57.08
2024-05-09T02:40:39.821Z,56.83
2024-05-09T02:43:09.072Z,57.22
2024-05-09T02:45:38.219Z,56.98
2024-05-09T02:48:06.598Z,57.22
2024-05-09T02:50:38.605Z,57.20
2024-05-09T02:53:08.391Z,57.17
2024-05-09T02:55:36.518Z,56.97
2024-05-09T02:58:03.923Z,56.93
2024-05-09T03:00:38.232Z,56.67
2024-05-09T03:03:09.970Z,57.01
2024-05-09T03:05:39.510Z,56.47
2024-05-09T03:08:07.220Z,56.33
2024-05-09T03:10:36.889Z,55.76
2024-05-09T03:13:14.117Z,55.30
2024-05-09T03:15:43.365Z,55.08
2024-05-09T03:18:11.113Z,55.36
2024-05-09T03:20:39.046Z,55.00
2024-05-09T03:23:07.493Z,55.23
2024-05-09T03:25:35.615Z,54.98
2024-05-09T03:28:03.488Z,54.25
2024-05-09T03:30:39.644Z,53.95
2024-05-09T03:33:11.488Z,54.03
2024-05-09T03:35:39.070Z,53.88
2024-05-09T03:38:06.550Z,53.89
2024-05-09T03:40:34.017Z,53.08
2024-05-09T03:43:01.372Z,52.91
2024-05-09T03:45:28.657Z,52.41
2024-05-09T03:47:56.191Z,52.86
2024-05-09T03:50:30.109Z,52.41
2024-05-09T03:53:01.987Z,52.68
2024-05-09T03:55:29.621Z,51.39
2024-05-09T03:57:56.936Z,51.70
2024-05-09T04:00:31.346Z,50.99
2024-05-09T04:03:07.271Z,50.79
2024-05-09T04:05:37.759Z,50.76
2024-05-09T04:08:05.786Z,49.99
2024-05-09T04:10:34.690Z,51.01
2024-05-09T04:13:03.856Z,50.20
2024-05-09T04:15:31.888Z,50.42
2024-05-09T04:18:00.030Z,49.36
2024-05-09T04:20:36.655Z,49.29
2024-05-09T04:23:08.674Z,49.08
2024-05-09T04:25:37.245Z,48.47
2024-05-09T04:28:05.308Z,48.24
2024-05-09T04:30:38.561Z,49.33
2024-05-09T04:33:10.437Z,48.37
2024-05-09T04:35:41.826Z,49.20
2024-05-09T04:38:09.558Z,48.61
2024-05-09T04:40:37.787Z,48.79
2024-05-09T04:43:06.182Z,48.45
2024-05-09T04:45:33.854Z,48.63
2024-05-09T04:48:01.678Z,48.35
2024-05-09T04:50:35.989Z,48.51
2024-05-09T04:53:08.193Z,48.13
2024-05-09T04:55:37.202Z,48.16
2024-05-09T04:58:05.460Z,47.45
2024-05-09T05:00:37.028Z,45.80
2024-05-09T05:03:13.087Z,46.27
2024-05-09T05:05:43.607Z,48.05
2024-05-09T05:08:15.891Z,46.96
2024-05-09T05:10:43.981Z,47.25
2024-05-09T05:13:20.551Z,47.56
2024-05-09T05:15:50.127Z,47.62
2024-05-09T05:18:18.183Z,47.44
2024-05-09T05:20:46.104Z,47.91
2024-05-09T05:23:19.236Z,47.17
2024-05-09T05:25:52.150Z,47.27
2024-05-09T05:28:19.634Z,47.33
2024-05-09T05:30:46.975Z,47.55
2024-05-09T05:33:15.387Z,47.01
2024-05-09T05:35:43.114Z,47.90
2024-05-09T05:38:11.035Z,47.60
2024-05-09T05:40:39.767Z,48.04
2024-05-09T05:43:16.898Z,47.57
2024-05-09T05:45:45.401Z,47.29
2024-05-09T05:48:13.385Z,47.02
2024-05-09T05:50:40.853Z,47.25
2024-05-09T05:53:09.168Z,48.39
2024-05-09T05:55:38.246Z,45.00
2024-05-09T05:58:05.534Z,43.13
2024-05-09T06:00:38.896Z,42.88
2024-05-09T06:03:09.281Z,43.16
2024-05-09T06:05:39.469Z,44.08
2024-05-09T06:08:07.379Z,42.26
2024-05-09T06:10:38.938Z,41.98
2024-05-09T06:13:10.805Z,41.94
2024-05-09T06:15:38.983Z,42.60
2024-05-09T06:18:07.646Z,42.43
2024-05-09T06:20:37.698Z,42.67
2024-05-09T06:23:06.778Z,43.70
2024-05-09T06:25:35.596Z,43.92
2024-05-09T06:28:03.270Z,42.31
2024-05-09T06:30:38.611Z,40.41
2024-05-09T06:33:10.509Z,41.76
2024-05-09T06:35:39.437Z,39.39
2024-05-09T06:38:08.912Z,40.44
2024-05-09T06:40:41.024Z,39.84
2024-05-09T06:43:14.051Z,40.45
2024-05-09T06:45:41.885Z,40.72
2024-05-09T06:48:09.797Z,40.32
2024-05-09T06:50:39.481Z,40.60
2024-05-09T06:53:07.985Z,39.44
2024-05-09T06:55:36.258Z,39.48
2024-05-09T06:58:05.328Z,38.78
2024-05-09T07:00:38.816Z,38.31
2024-05-09T07:03:14.960Z,37.25
2024-05-09T07:05:45.385Z,37.85
2024-05-09T07:08:13.641Z,39.19
2024-05-09T07:10:41.225Z,41.43
2024-05-09T07:13:12.702Z,40.63
2024-05-09T07:15:40.802Z,40.52
2024-05-09T07:18:12.438Z,38.85
2024-05-09T07:20:40.262Z,38.53
2024-05-09T07:23:11.690Z,38.38
2024-05-09T07:25:39.896Z,38.47
2024-05-09T07:28:14.584Z,38.99
2024-05-09T07:30:42.433Z,39.07
2024-05-09T07:33:12.006Z,38.35
2024-05-09T07:35:40.493Z,38.20
2024-05-09T07:38:07.976Z,39.26
2024-05-09T07:40:37.055Z,39.02
2024-05-09T07:43:04.877Z,39.13
2024-05-09T07:52:32.561Z,37.40
2024-05-09T07:55:55.531Z,37.53
2024-05-09T07:58:27.109Z,37.57
2024-05-09T08:00:54.860Z,37.65
2024-05-09T08:03:22.849Z,37.74
2024-05-09T08:05:51.780Z,37.78
2024-05-09T08:08:19.216Z,36.88
2024-05-09T08:10:46.688Z,36.38
2024-05-09T08:13:14.216Z,37.31
2024-05-09T08:15:41.966Z,36.91
2024-05-09T08:18:12.326Z,37.05
2024-05-09T08:20:41.068Z,37.81
2024-05-09T08:23:08.385Z,38.25
2024-05-09T08:25:36.971Z,38.00
2024-05-09T08:28:05.163Z,37.61
2024-05-09T08:30:36.893Z,37.78
2024-05-09T08:33:06.831Z,37.39
2024-05-09T08:35:35.671Z,37.07
2024-05-09T08:38:03.727Z,37.07
2024-05-09T08:40:36.233Z,37.57
2024-05-09T08:43:10.591Z,37.91
2024-05-09T08:45:41.994Z,37.72
2024-05-09T08:48:09.723Z,37.06
2024-05-09T08:50:39.413Z,37.09
2024-05-09T08:53:08.346Z,37.24
2024-05-09T08:55:40.205Z,36.20
2024-05-09T08:58:20.461Z,36.09
2024-05-09T09:00:48.432Z,37.08
2024-05-09T09:03:22.149Z,37.40
2024-05-09T09:05:58.316Z,36.98
2024-05-09T09:08:25.927Z,37.17
2024-05-09T09:10:55.483Z,36.87
2024-05-09T09:13:22.898Z,37.21
2024-05-09T09:15:50.660Z,36.72
2024-05-09T09:18:18.575Z,37.08
2024-05-09T09:20:47.262Z,35.75
2024-05-09T09:23:14.798Z,36.23
2024-05-09T09:25:42.337Z,36.10
2024-05-09T09:28:09.928Z,36.38
2024-05-09T09:30:41.279Z,36.46
2024-05-09T09:33:09.167Z,37.46
2024-05-09T09:35:39.195Z,36.81
2024-05-09T09:38:07.022Z,37.03
2024-05-09T09:40:39.085Z,35.90
2024-05-09T09:43:15.132Z,36.31
2024-05-09T09:45:43.785Z,36.19
2024-05-09T09:48:12.057Z,35.98
2024-05-09T09:50:39.590Z,36.89
2024-05-09T09:53:07.346Z,36.36
2024-05-09T09:55:34.764Z,37.44
2024-05-09T09:58:02.231Z,37.77
2024-05-09T10:00:33.100Z,36.96
2024-05-09T10:03:02.172Z,36.72
2024-05-09T10:05:29.881Z,37.64
2024-05-09T10:07:57.433Z,36.97
2024-05-09T10:10:31.769Z,37.06
2024-05-09T10:13:09.015Z,36.70
2024-05-09T10:15:46.943Z,37.13
2024-05-09T10:18:14.977Z,36.91
2024-05-09T10:20:43.302Z,36.30
2024-05-09T10:23:32.859Z,36.59
2024-05-09T10:26:00.688Z,36.41
2024-05-09T10:28:28.681Z,36.96
2024-05-09T10:31:03.620Z,36.73
2024-05-09T10:33:51.203Z,36.03
2024-05-09T10:36:19.653Z,35.34
2024-05-09T10:38:46.891Z,35.67
2024-05-09T10:41:14.113Z,35.35
2024-05-09T10:43:41.859Z,35.77
2024-05-09T10:46:09.864Z,35.22
2024-05-09T10:48:37.768Z,35.04
2024-05-09T10:51:05.503Z,34.59
2024-05-09T10:53:32.817Z,34.21
2024-05-09T10:56:00.691Z,33.81
2024-05-09T10:58:28.251Z,33.54
2024-05-09T11:00:55.685Z,33.45
2024-05-09T11:03:26.335Z,33.31
2024-05-09T11:05:54.035Z,32.46
2024-05-09T11:08:22.257Z,32.91
2024-05-09T11:10:51.482Z,33.42
2024-05-09T11:13:32.494Z,33.39
2024-05-09T11:16:00.061Z,33.74
2024-05-09T11:18:31.963Z,33.09
2024-05-09T11:21:02.530Z,33.13
2024-05-09T11:23:30.466Z,33.22
2024-05-09T11:25:58.282Z,33.18
2024-05-09T11:28:28.299Z,33.95
2024-05-09T11:31:08.029Z,33.84
2024-05-09T11:33:37.129Z,32.97
2024-05-09T11:36:05.436Z,33.02
2024-05-09T11:38:32.999Z,33.19
2024-05-09T11:41:00.297Z,33.65
2024-05-09T11:43:27.667Z,33.31
2024-05-09T11:45:56.702Z,33.42
2024-05-09T11:48:24.921Z,32.92
2024-05-09T11:50:52.243Z,32.73
2024-05-09T11:53:19.477Z,32.97
2024-05-09T11:55:46.779Z,33.39
2024-05-09T11:58:17.006Z,31.31
2024-05-09T12:00:44.715Z,31.78
2024-05-09T12:03:12.300Z,33.02
2024-05-09T12:05:39.759Z,31.98
2024-05-09T12:08:07.389Z,31.67
2024-05-09T12:10:36.238Z,31.51
2024-05-09T12:13:06.448Z,32.08
2024-05-09T12:15:38.648Z,32.22
2024-05-09T12:18:07.740Z,32.10
2024-05-09T12:20:38.688Z,32.08
2024-05-09T12:23:09.342Z,32.36
2024-05-09T12:25:38.299Z,32.40
2024-05-09T12:28:06.397Z,31.59
2024-05-09T12:30:38.368Z,31.94
2024-05-09T12:33:09.375Z,31.89
2024-05-09T12:35:37.129Z,31.31
2024-05-09T12:38:04.587Z,31.59
2024-05-09T12:40:36.643Z,31.94
2024-05-09T12:43:07.471Z,31.70
2024-05-09T12:45:35.690Z,31.56
2024-05-09T12:48:04.601Z,31.78
2024-05-09T12:50:34.146Z,32.42
2024-05-09T12:53:03.778Z,32.88
2024-05-09T12:55:40.478Z,33.67
2024-05-09T12:58:16.956Z,32.62
2024-05-09T13:00:45.238Z,32.27
2024-05-09T13:03:12.968Z,32.88
2024-05-09T13:05:46.879Z,32.83
2024-05-09T13:08:14.310Z,32.32
2024-05-09T13:10:41.773Z,31.36
2024-05-09T13:13:12.530Z,31.14
2024-05-09T13:15:40.281Z,31.79
2024-05-09T13:18:08.526Z,31.11
2024-05-09T13:20:36.764Z,30.80
2024-05-09T13:23:05.775Z,31.34
2024-05-09T13:25:37.677Z,31.90
2024-05-09T13:28:06.359Z,31.81
2024-05-09T13:30:39.353Z,31.38
2024-05-09T13:33:18.250Z,31.71
2024-05-09T13:35:49.611Z,31.84
2024-05-09T13:38:18.623Z,32.37
2024-05-09T13:40:46.552Z,31.65
2024-05-09T13:46:33.983Z,31.06
2024-05-09T13:49:02.525Z,31.17
2024-05-09T13:51:29.881Z,31.19
2024-05-09T13:53:58.623Z,30.73
2024-05-09T13:56:25.275Z,31.35
2024-05-09T13:58:51.790Z,30.60
2024-05-09T14:01:18.495Z,30.84
2024-05-09T14:03:45.622Z,30.04
2024-05-09T14:06:13.264Z,30.76
2024-05-09T14:08:39.995Z,30.41
2024-05-09T14:11:06.807Z,30.63
2024-05-09T14:13:33.532Z,30.21
2024-05-09T14:16:00.279Z,29.54
2024-05-09T14:18:27.255Z,30.03
2024-05-09T14:20:53.806Z,30.29
2024-05-09T14:23:21.925Z,30.25
2024-05-09T14:25:52.037Z,30.36
2024-05-09T14:28:21.254Z,30.16
2024-05-09T14:30:48.102Z,30.43
2024-05-09T14:33:19.769Z,30.38
2024-05-09T14:35:46.345Z,30.58
2024-05-09T14:38:15.150Z,30.38
2024-05-09T14:40:43.958Z,29.73
2024-05-09T14:43:11.819Z,30.06
2024-05-09T14:45:38.957Z,30.05
2024-05-09T14:48:06.622Z,30.25
2024-05-09T14:50:37.394Z,30.33
2024-05-09T14:53:07.361Z,30.31
2024-05-09T14:55:34.965Z,29.38
2024-05-09T14:58:02.047Z,29.91
2024-05-09T15:00:33.451Z,29.61
2024-05-09T15:03:03.733Z,29.30
2024-05-09T15:05:30.692Z,29.56
2024-05-09T15:07:57.675Z,29.51
2024-05-09T15:10:33.500Z,29.55
2024-05-09T15:13:03.084Z,29.30
2024-05-09T15:15:30.278Z,29.10
2024-05-09T15:17:57.182Z,28.80
2024-05-09T15:20:31.440Z,28.60
2024-05-09T15:23:02.418Z,28.63
2024-05-09T15:25:29.480Z,28.98
2024-05-09T15:27:56.410Z,28.73
2024-05-09T15:30:30.232Z,27.15
2024-05-09T15:33:00.355Z,28.00
2024-05-09T15:35:27.922Z,27.45
2024-05-09T15:37:54.839Z,27.92
2024-05-09T15:40:30.907Z,27.40
2024-05-09T15:43:05.368Z,26.93
2024-05-09T15:45:33.339Z,26.99
2024-05-09T15:48:00.304Z,26.96
2024-05-09T15:50:35.938Z,26.30
2024-05-09T15:53:07.936Z,26.90
2024-05-09T15:55:35.515Z,27.30
2024-05-09T15:58:03.212Z,26.99
2024-05-09T16:00:38.348Z,26.91
2024-05-09T16:03:12.735Z,27.27
2024-05-09T16:05:42.832Z,27.79
2024-05-09T16:08:10.132Z,27.14
2024-05-09T16:10:39.919Z,26.28
2024-05-09T16:13:08.035Z,26.05
2024-05-09T16:15:34.831Z,26.28
2024-05-09T16:18:01.523Z,26.97
2024-05-09T16:20:37.883Z,26.70
2024-05-09T16:23:07.585Z,26.13
2024-05-09T16:25:34.590Z,25.95
2024-05-09T16:28:02.293Z,26.09
2024-05-09T16:30:34.726Z,26.68
2024-05-09T16:33:03.905Z,27.07
2024-05-09T16:35:31.403Z,26.73
2024-05-09T16:37:58.176Z,26.98
2024-05-09T16:40:33.879Z,27.11
2024-05-09T16:43:05.352Z,26.83
2024-05-09T16:45:32.601Z,26.85
2024-05-09T16:47:59.741Z,27.22
2024-05-09T16:50:32.366Z,27.78
2024-05-09T16:53:01.861Z,27.95
2024-05-09T16:55:28.799Z,28.04
2024-05-09T16:57:55.892Z,28.38
2024-05-09T17:00:34.800Z,28.45
2024-05-09T17:03:08.216Z,28.08
2024-05-09T17:05:35.892Z,28.37
2024-05-09T17:08:03.286Z,28.28
2024-05-09T17:10:33.658Z,28.43
2024-05-09T17:13:03.242Z,28.78
2024-05-09T17:15:31.562Z,28.40
2024-05-09T17:17:58.619Z,28.84
2024-05-09T17:20:32.204Z,28.72
2024-05-09T17:23:02.269Z,28.92
2024-05-09T17:25:29.572Z,29.03
2024-05-09T17:27:58.657Z,29.24
2024-05-09T17:30:32.348Z,29.55
2024-05-09T17:33:05.116Z,29.80
2024-05-09T17:35:32.077Z,29.77
2024-05-09T17:38:00.784Z,29.97
2024-05-09T17:40:32.769Z,30.05
2024-05-09T17:43:03.597Z,30.33
2024-05-09T17:45:30.926Z,30.32
2024-05-09T17:47:58.165Z,30.44
2024-05-09T17:50:31.298Z,30.45
2024-05-09T17:53:02.336Z,30.32
2024-05-09T17:55:29.365Z,30.33
2024-05-09T17:57:56.364Z,30.38
2024-05-09T18:00:33.120Z,30.64
2024-05-09T18:03:05.495Z,30.90
2024-05-09T18:05:32.526Z,30.98
2024-05-09T18:07:59.524Z,30.85
2024-05-09T18:10:33.259Z,30.81
2024-05-09T18:13:04.705Z,31.02
2024-05-09T18:15:31.634Z,31.02
2024-05-09T18:17:58.671Z,31.00
2024-05-09T18:20:36.083Z,30.83
2024-05-09T18:23:08.338Z,30.92
2024-05-09T18:25:35.147Z,31.10
2024-05-09T18:28:02.449Z,31.00
2024-05-09T18:30:34.722Z,31.01
2024-05-09T18:33:05.420Z,31.11
2024-05-09T18:35:33.543Z,31.52
2024-05-09T18:38:00.369Z,31.53
2024-05-09T18:40:33.839Z,31.30
2024-05-09T18:43:03.898Z,31.29
2024-05-09T18:45:31.151Z,31.47
2024-05-09T18:47:58.332Z,31.66
2024-05-09T18:50:34.226Z,31.65
2024-05-09T18:53:05.134Z,31.84
2024-05-09T18:55:31.896Z,31.48
2024-05-09T18:57:58.562Z,31.33
2024-05-09T19:00:33.539Z,31.28
2024-05-09T19:03:07.186Z,31.01
2024-05-09T19:05:36.072Z,31.12
2024-05-09T19:08:03.363Z,31.09
2024-05-09T19:10:34.393Z,31.05
2024-05-09T19:13:06.884Z,31.19
2024-05-09T19:15:37.631Z,31.05
2024-05-09T19:18:04.845Z,31.19
2024-05-09T19:20:34.649Z,31.25
2024-05-09T19:23:03.532Z,31.12
2024-05-09T19:25:31.260Z,31.36
2024-05-09T19:27:59.276Z,31.45
2024-05-09T19:30:34.780Z,31.45
2024-05-09T19:33:06.977Z,31.66
2024-05-09T19:35:33.992Z,31.79
2024-05-09T19:38:00.719Z,31.91
2024-05-09T19:40:31.722Z,31.76
2024-05-09T19:43:01.120Z,31.66
2024-05-09T19:45:28.099Z,32.12
2024-05-09T19:47:55.060Z,31.74
2024-05-09T19:50:30.812Z,32.04
2024-05-09T19:53:04.313Z,32.77
2024-05-09T19:55:30.999Z,32.96
2024-05-09T19:57:58.945Z,33.28
2024-05-09T20:00:32.792Z,33.35
2024-05-09T20:03:04.034Z,33.51
2024-05-09T20:05:31.415Z,33.51
2024-05-09T20:07:58.373Z,33.60
2024-05-09T20:10:31.381Z,33.76
2024-05-09T20:13:00.577Z,33.81
2024-05-09T20:15:27.417Z,34.01
2024-05-09T20:17:54.617Z,33.87
2024-05-09T20:20:32.150Z,34.22
2024-05-09T20:23:04.853Z,34.07
2024-05-09T20:25:31.432Z,33.57
2024-05-09T20:27:58.103Z,32.93
2024-05-09T20:30:31.339Z,32.27
2024-05-09T20:33:06.161Z,32.11
2024-05-09T20:35:34.247Z,31.88
2024-05-09T20:38:01.918Z,31.59
2024-05-09T20:40:33.951Z,31.74
2024-05-09T20:43:04.974Z,31.76
2024-05-09T20:45:31.958Z,32.06
2024-05-09T20:47:58.827Z,32.27
2024-05-09T20:50:35.795Z,32.40
2024-05-09T20:53:10.782Z,32.70
2024-05-09T20:55:39.293Z,32.60
2024-05-09T20:58:05.853Z,32.22
2024-05-09T21:00:39.276Z,32.46
2024-05-09T21:03:09.618Z,32.61
2024-05-09T21:05:37.560Z,32.70
2024-05-09T21:08:04.577Z,32.79
2024-05-09T21:10:33.441Z,32.79
2024-05-09T21:13:02.079Z,32.69
2024-05-09T21:15:29.472Z,32.69
2024-05-09T21:17:56.302Z,32.79
2024-05-09T21:20:30.165Z,32.81
2024-05-09T21:22:58.736Z,32.62
2024-05-09T21:25:26.026Z,32.43
2024-05-09T21:27:52.842Z,32.37
2024-05-09T21:30:31.473Z,32.51
2024-05-09T21:33:07.270Z,32.78
2024-05-09T21:35:34.241Z,32.81
2024-05-09T21:38:01.160Z,32.76
2024-05-09T21:40:34.129Z,32.95
2024-05-09T21:43:03.596Z,33.31
2024-05-09T21:45:30.567Z,33.71
2024-05-09T21:47:57.270Z,33.64
2024-05-09T21:50:31.852Z,33.77
2024-05-09T21:53:05.736Z,33.94
2024-05-09T21:55:32.510Z,34.22
2024-05-09T21:57:59.154Z,34.33
2024-05-09T22:00:34.245Z,34.52
2024-05-09T22:03:05.190Z,34.70
2024-05-09T22:05:32.426Z,34.93
2024-05-09T22:07:59.602Z,34.95
2024-05-09T22:10:32.814Z,34.86
2024-05-09T22:13:02.555Z,35.16
2024-05-09T22:15:29.407Z,35.28
2024-05-09T22:17:57.286Z,35.38
2024-05-09T22:20:33.091Z,35.59
2024-05-09T22:23:03.544Z,36.03
2024-05-09T22:25:31.466Z,35.95
2024-05-09T22:28:00.115Z,36.03
2024-05-09T22:30:35.183Z,36.46
2024-05-09T22:33:06.592Z,36.47
2024-05-09T22:35:33.627Z,36.60
2024-05-09T22:38:01.472Z,36.87
2024-05-09T22:40:38.849Z,37.36
2024-05-09T22:43:16.169Z,37.20
2024-05-09T22:45:43.051Z,37.33
2024-05-09T22:48:09.975Z,37.58
2024-05-09T22:50:37.021Z,37.63
2024-05-09T22:53:04.846Z,37.90
2024-05-09T22:55:31.711Z,38.09
2024-05-09T22:57:58.473Z,38.15
2024-05-09T23:00:31.288Z,38.14
2024-05-09T23:03:00.258Z,38.46
2024-05-09T23:05:27.309Z,38.61
2024-05-09T23:07:54.287Z,38.80
2024-05-09T23:10:28.152Z,38.89
2024-05-09T23:13:01.625Z,39.27
2024-05-09T23:15:28.920Z,39.41
2024-05-09T23:17:56.407Z,39.42
2024-05-09T23:20:33.323Z,39.54
2024-05-09T23:23:05.542Z,39.56
2024-05-09T23:25:32.066Z,39.95
2024-05-09T23:27:58.931Z,39.98
2024-05-09T23:30:34.079Z,39.82
2024-05-09T23:33:05.578Z,40.00
2024-05-09T23:35:32.702Z,40.07
2024-05-09T23:37:59.648Z,40.20
2024-05-09T23:40:37.045Z,40.29
2024-05-09T23:43:07.805Z,40.18
2024-05-09T23:45:34.914Z,40.25
2024-05-09T23:48:02.221Z,40.60
2024-05-09T23:52:58.903Z,40.52
2024-05-09T23:55:25.659Z,40.67
2024-05-09T23:57:52.996Z,40.57
